sensor_id;sensor_type;location;lat;lon;timestamp;temperature;humidity
20815;DHT22;10568;48.176;16.316;2023-04-06T00:01:08;-0.20;99.90
20815;DHT22;10568;48.176;16.316;2023-04-06T00:03:34;-0.20;99.90
20815;DHT22;10568;48.176;16.316;2023-04-06T00:06:00;-0.30;99.90
20815;DHT22;10568;48.176;16.316;2023-04-06T00:08:26;-0.30;99.90
20815;DHT22;10568;48.176;16.316;2023-04-06T00:10:52;-0.30;99.90
20815;DHT22;10568;48.176;16.316;2023-04-06T00:13:18;-0.30;99.90
20815;DHT22;10568;48.176;16.316;2023-04-06T00:15:43;-0.40;99.90
20815;DHT22;10568;48.176;16.316;2023-04-06T00:18:09;-0.40;99.90
20815;DHT22;10568;48.176;16.316;2023-04-06T00:20:35;-0.50;99.90
20815;DHT22;10568;48.176;16.316;2023-04-06T00:23:00;-0.60;99.90
20815;DHT22;10568;48.176;16.316;2023-04-06T00:25:26;-0.60;99.90
20815;DHT22;10568;48.176;16.316;2023-04-06T00:27:52;-0.60;99.90
20815;DHT22;10568;48.176;16.316;2023-04-06T00:30:18;-0.70;99.90
20815;DHT22;10568;48.176;16.316;2023-04-06T00:32:43;-0.70;99.90
20815;DHT22;10568;48.176;16.316;2023-04-06T00:35:09;-0.70;99.90
20815;DHT22;10568;48.176;16.316;2023-04-06T00:37:35;-0.60;99.90
20815;DHT22;10568;48.176;16.316;2023-04-06T00:40:01;-0.60;99.90
20815;DHT22;10568;48.176;16.316;2023-04-06T00:42:27;-0.60;99.90
20815;DHT22;10568;48.176;16.316;2023-04-06T00:44:58;-0.70;99.90
20815;DHT22;10568;48.176;16.316;2023-04-06T00:47:25;-0.60;99.90
20815;DHT22;10568;48.176;16.316;2023-04-06T00:53:13;-0.70;99.90
20815;DHT22;10568;48.176;16.316;2023-04-06T00:55:38;-0.70;99.90
20815;DHT22;10568;48.176;16.316;2023-04-06T00:58:04;-0.30;99.90
20815;DHT22;10568;48.176;16.316;2023-04-06T01:00:32;-0.70;99.90
20815;DHT22;10568;48.176;16.316;2023-04-06T01:02:57;-0.70;99.90
20815;DHT22;10568;48.176;16.316;2023-04-06T01:05:23;0.30;99.90
20815;DHT22;10568;48.176;16.316;2023-04-06T01:07:49;-0.70;99.90
20815;DHT22;10568;48.176;16.316;2023-04-06T01:10:26;-0.70;99.90
20815;DHT22;10568;48.176;16.316;2023-04-06T01:12:52;-0.70;99.90
20815;DHT22;10568;48.176;16.316;2023-04-06T01:15:27;-0.70;99.90
20815;DHT22;10568;48.176;16.316;2023-04-06T01:17:53;-0.70;99.90
20815;DHT22;10568;48.176;16.316;2023-04-06T01:20:19;-0.70;99.90
20815;DHT22;10568;48.176;16.316;2023-04-06T01:22:45;-0.70;99.90
20815;DHT22;10568;48.176;16.316;2023-04-06T01:25:10;-0.70;99.90
20815;DHT22;10568;48.176;16.316;2023-04-06T01:31:11;-0.70;99.90
20815;DHT22;10568;48.176;16.316;2023-04-06T01:33:37;-0.70;99.90
20815;DHT22;10568;48.176;16.316;2023-04-06T01:36:03;-0.70;99.90
20815;DHT22;10568;48.176;16.316;2023-04-06T01:38:29;-0.80;99.90
20815;DHT22;10568;48.176;16.316;2023-04-06T01:40:55;-0.80;99.90
20815;DHT22;10568;48.176;16.316;2023-04-06T01:43:21;-0.80;99.90
20815;DHT22;10568;48.176;16.316;2023-04-06T01:45:47;-0.80;99.90
20815;DHT22;10568;48.176;16.316;2023-04-06T01:48:13;-0.90;99.90
20815;DHT22;10568;48.176;16.316;2023-04-06T01:53:57;-0.90;99.90
20815;DHT22;10568;48.176;16.316;2023-04-06T01:56:23;-0.90;99.90
20815;DHT22;10568;48.176;16.316;2023-04-06T01:58:49;-0.90;99.90
20815;DHT22;10568;48.176;16.316;2023-04-06T02:01:15;-0.30;99.90
20815;DHT22;10568;48.176;16.316;2023-04-06T02:03:40;-1.00;99.90
20815;DHT22;10568;48.176;16.316;2023-04-06T02:06:06;-0.90;99.90
20815;DHT22;10568;48.176;16.316;2023-04-06T02:08:32;-1.00;99.90
20815;DHT22;10568;48.176;16.316;2023-04-06T02:10:58;-0.90;99.90
20815;DHT22;10568;48.176;16.316;2023-04-06T02:13:23;-0.90;99.90
20815;DHT22;10568;48.176;16.316;2023-04-06T02:15:49;-0.90;99.90
20815;DHT22;10568;48.176;16.316;2023-04-06T02:18:15;-0.90;99.90
20815;DHT22;10568;48.176;16.316;2023-04-06T02:20:43;-0.80;99.90
20815;DHT22;10568;48.176;16.316;2023-04-06T02:23:10;-0.80;99.90
20815;DHT22;10568;48.176;16.316;2023-04-06T02:25:35;-0.90;99.90
20815;DHT22;10568;48.176;16.316;2023-04-06T02:31:23;-0.80;99.90
20815;DHT22;10568;48.176;16.316;2023-04-06T02:33:49;-0.80;99.90
20815;DHT22;10568;48.176;16.316;2023-04-06T02:36:15;-0.80;99.90
20815;DHT22;10568;48.176;16.316;2023-04-06T02:38:41;-0.90;99.90
20815;DHT22;10568;48.176;16.316;2023-04-06T02:41:07;-0.90;99.90
20815;DHT22;10568;48.176;16.316;2023-04-06T02:43:33;-0.90;99.90
20815;DHT22;10568;48.176;16.316;2023-04-06T02:45:59;-0.90;99.90
20815;DHT22;10568;48.176;16.316;2023-04-06T02:48:24;-0.90;99.90
20815;DHT22;10568;48.176;16.316;2023-04-06T02:50:50;-1.00;99.90
20815;DHT22;10568;48.176;16.316;2023-04-06T02:53:16;-1.00;99.90
20815;DHT22;10568;48.176;16.316;2023-04-06T02:55:42;-0.90;99.90
20815;DHT22;10568;48.176;16.316;2023-04-06T02:58:08;-0.90;99.90
20815;DHT22;10568;48.176;16.316;2023-04-06T03:00:33;-0.90;99.90
20815;DHT22;10568;48.176;16.316;2023-04-06T03:02:59;-0.90;99.90
20815;DHT22;10568;48.176;16.316;2023-04-06T03:05:25;-0.90;99.90
20815;DHT22;10568;48.176;16.316;2023-04-06T03:07:51;-0.90;99.90
20815;DHT22;10568;48.176;16.316;2023-04-06T03:10:19;-0.90;99.90
20815;DHT22;10568;48.176;16.316;2023-04-06T03:12:44;-0.90;99.90
20815;DHT22;10568;48.176;16.316;2023-04-06T03:15:10;-0.90;99.90
20815;DHT22;10568;48.176;16.316;2023-04-06T03:17:36;-0.90;99.90
20815;DHT22;10568;48.176;16.316;2023-04-06T03:20:03;-0.90;99.90
20815;DHT22;10568;48.176;16.316;2023-04-06T03:22:29;-0.90;99.90
20815;DHT22;10568;48.176;16.316;2023-04-06T03:24:55;-0.90;99.90
20815;DHT22;10568;48.176;16.316;2023-04-06T03:27:21;-1.00;99.90
20815;DHT22;10568;48.176;16.316;2023-04-06T03:29:47;-1.00;99.90
20815;DHT22;10568;48.176;16.316;2023-04-06T03:32:12;-1.00;99.90
20815;DHT22;10568;48.176;16.316;2023-04-06T03:34:39;-1.00;99.90
20815;DHT22;10568;48.176;16.316;2023-04-06T03:37:05;-1.00;99.90
20815;DHT22;10568;48.176;16.316;2023-04-06T03:39:30;-1.00;99.90
20815;DHT22;10568;48.176;16.316;2023-04-06T03:41:57;-1.10;99.90
20815;DHT22;10568;48.176;16.316;2023-04-06T03:44:23;-1.10;99.90
20815;DHT22;10568;48.176;16.316;2023-04-06T03:46:48;-1.10;99.90
20815;DHT22;10568;48.176;16.316;2023-04-06T03:49:14;-1.00;99.90
20815;DHT22;10568;48.176;16.316;2023-04-06T03:51:40;-1.00;99.90
20815;DHT22;10568;48.176;16.316;2023-04-06T03:54:05;-1.00;99.90
20815;DHT22;10568;48.176;16.316;2023-04-06T03:56:31;-1.00;99.90
20815;DHT22;10568;48.176;16.316;2023-04-06T03:58:57;-1.00;99.90
20815;DHT22;10568;48.176;16.316;2023-04-06T04:01:22;-1.00;99.90
20815;DHT22;10568;48.176;16.316;2023-04-06T04:03:48;-1.00;99.90
20815;DHT22;10568;48.176;16.316;2023-04-06T04:06:14;-1.00;99.90
20815;DHT22;10568;48.176;16.316;2023-04-06T04:08:40;-1.00;99.90
20815;DHT22;10568;48.176;16.316;2023-04-06T04:11:06;-0.90;99.90
20815;DHT22;10568;48.176;16.316;2023-04-06T04:13:31;-1.50;99.90
20815;DHT22;10568;48.176;16.316;2023-04-06T04:16:09;-0.90;99.90
20815;DHT22;10568;48.176;16.316;2023-04-06T04:18:35;-0.90;99.90
20815;DHT22;10568;48.176;16.316;2023-04-06T04:21:02;-0.80;99.90
20815;DHT22;10568;48.176;16.316;2023-04-06T04:23:27;0.30;99.90
20815;DHT22;10568;48.176;16.316;2023-04-06T04:25:53;-0.80;99.90
20815;DHT22;10568;48.176;16.316;2023-04-06T04:28:19;-0.70;99.90
20815;DHT22;10568;48.176;16.316;2023-04-06T04:30:46;-0.70;99.90
20815;DHT22;10568;48.176;16.316;2023-04-06T04:33:12;-0.70;99.90
20815;DHT22;10568;48.176;16.316;2023-04-06T04:35:37;-0.70;99.90
20815;DHT22;10568;48.176;16.316;2023-04-06T04:38:03;-0.70;99.90
20815;DHT22;10568;48.176;16.316;2023-04-06T04:40:29;-0.70;99.90
20815;DHT22;10568;48.176;16.316;2023-04-06T04:42:55;-0.80;99.90
20815;DHT22;10568;48.176;16.316;2023-04-06T04:45:20;-0.30;99.90
20815;DHT22;10568;48.176;16.316;2023-04-06T04:47:46;-0.70;99.90
20815;DHT22;10568;48.176;16.316;2023-04-06T04:50:12;-0.70;99.90
20815;DHT22;10568;48.176;16.316;2023-04-06T04:52:37;-0.60;99.90
20815;DHT22;10568;48.176;16.316;2023-04-06T04:55:03;-0.50;99.90
20815;DHT22;10568;48.176;16.316;2023-04-06T04:57:29;-0.50;99.90
20815;DHT22;10568;48.176;16.316;2023-04-06T04:59:55;-0.50;99.90
20815;DHT22;10568;48.176;16.316;2023-04-06T05:02:22;-0.50;99.90
20815;DHT22;10568;48.176;16.316;2023-04-06T05:04:48;-0.40;99.90
20815;DHT22;10568;48.176;16.316;2023-04-06T05:07:14;-0.40;99.90
20815;DHT22;10568;48.176;16.316;2023-04-06T05:09:40;-0.40;99.90
20815;DHT22;10568;48.176;16.316;2023-04-06T05:12:06;-0.40;99.90
20815;DHT22;10568;48.176;16.316;2023-04-06T05:14:32;-0.40;99.90
20815;DHT22;10568;48.176;16.316;2023-04-06T05:16:58;-0.30;99.90
20815;DHT22;10568;48.176;16.316;2023-04-06T05:19:24;-0.20;99.90
20815;DHT22;10568;48.176;16.316;2023-04-06T05:21:50;-0.20;99.90
20815;DHT22;10568;48.176;16.316;2023-04-06T05:24:16;-0.20;99.90
20815;DHT22;10568;48.176;16.316;2023-04-06T05:26:42;-0.10;99.90
20815;DHT22;10568;48.176;16.316;2023-04-06T05:29:08;-0.10;99.90
20815;DHT22;10568;48.176;16.316;2023-04-06T05:31:34;0.00;99.90
20815;DHT22;10568;48.176;16.316;2023-04-06T05:33:59;0.80;99.90
20815;DHT22;10568;48.176;16.316;2023-04-06T05:36:25;2.30;99.90
20815;DHT22;10568;48.176;16.316;2023-04-06T05:38:51;3.10;99.90
20815;DHT22;10568;48.176;16.316;2023-04-06T05:41:18;3.50;99.90
20815;DHT22;10568;48.176;16.316;2023-04-06T05:43:44;3.60;99.90
20815;DHT22;10568;48.176;16.316;2023-04-06T05:46:10;3.40;99.90
20815;DHT22;10568;48.176;16.316;2023-04-06T05:48:36;3.20;99.90
20815;DHT22;10568;48.176;16.316;2023-04-06T05:51:01;3.10;99.90
20815;DHT22;10568;48.176;16.316;2023-04-06T05:53:31;3.30;99.90
20815;DHT22;10568;48.176;16.316;2023-04-06T05:59:19;3.30;99.80
20815;DHT22;10568;48.176;16.316;2023-04-06T06:01:46;3.70;99.90
20815;DHT22;10568;48.176;16.316;2023-04-06T06:04:11;3.90;98.90
20815;DHT22;10568;48.176;16.316;2023-04-06T06:06:37;4.20;98.10
20815;DHT22;10568;48.176;16.316;2023-04-06T06:09:03;4.50;97.80
20815;DHT22;10568;48.176;16.316;2023-04-06T06:11:29;5.00;97.60
20815;DHT22;10568;48.176;16.316;2023-04-06T06:13:55;5.00;97.30
20815;DHT22;10568;48.176;16.316;2023-04-06T06:16:22;5.20;97.60
20815;DHT22;10568;48.176;16.316;2023-04-06T06:18:47;5.20;97.50
20815;DHT22;10568;48.176;16.316;2023-04-06T06:21:13;5.40;96.30
20815;DHT22;10568;48.176;16.316;2023-04-06T06:23:41;5.40;95.20
20815;DHT22;10568;48.176;16.316;2023-04-06T06:26:07;5.50;94.60
20815;DHT22;10568;48.176;16.316;2023-04-06T06:28:33;5.20;95.20
20815;DHT22;10568;48.176;16.316;2023-04-06T06:30:58;5.10;95.00
20815;DHT22;10568;48.176;16.316;2023-04-06T06:33:25;5.20;95.60
20815;DHT22;10568;48.176;16.316;2023-04-06T06:35:51;5.20;95.40
20815;DHT22;10568;48.176;16.316;2023-04-06T06:38:17;5.30;95.70
20815;DHT22;10568;48.176;16.316;2023-04-06T06:40:45;5.50;95.00
20815;DHT22;10568;48.176;16.316;2023-04-06T06:43:23;5.30;95.50
20815;DHT22;10568;48.176;16.316;2023-04-06T06:45:49;5.60;95.70
20815;DHT22;10568;48.176;16.316;2023-04-06T06:48:15;5.80;94.40
20815;DHT22;10568;48.176;16.316;2023-04-06T06:50:41;5.80;94.40
20815;DHT22;10568;48.176;16.316;2023-04-06T06:53:07;5.90;94.20
20815;DHT22;10568;48.176;16.316;2023-04-06T06:55:32;5.90;94.60
20815;DHT22;10568;48.176;16.316;2023-04-06T06:57:58;5.80;95.10
20815;DHT22;10568;48.176;16.316;2023-04-06T07:00:24;5.80;95.20
20815;DHT22;10568;48.176;16.316;2023-04-06T07:02:50;5.80;97.30
20815;DHT22;10568;48.176;16.316;2023-04-06T07:05:16;5.90;96.60
20815;DHT22;10568;48.176;16.316;2023-04-06T07:07:42;5.90;96.20
20815;DHT22;10568;48.176;16.316;2023-04-06T07:10:09;6.10;96.70
20815;DHT22;10568;48.176;16.316;2023-04-06T07:12:35;6.30;94.90
20815;DHT22;10568;48.176;16.316;2023-04-06T07:15:06;6.30;95.60
20815;DHT22;10568;48.176;16.316;2023-04-06T07:17:32;6.40;95.40
20815;DHT22;10568;48.176;16.316;2023-04-06T07:19:58;6.60;97.00
20815;DHT22;10568;48.176;16.316;2023-04-06T07:22:24;6.30;95.90
20815;DHT22;10568;48.176;16.316;2023-04-06T07:24:50;6.70;96.30
20815;DHT22;10568;48.176;16.316;2023-04-06T07:27:15;6.90;96.50
20815;DHT22;10568;48.176;16.316;2023-04-06T07:29:42;7.00;95.60
20815;DHT22;10568;48.176;16.316;2023-04-06T07:32:08;7.20;96.30
20815;DHT22;10568;48.176;16.316;2023-04-06T07:34:34;7.20;95.20
20815;DHT22;10568;48.176;16.316;2023-04-06T07:36:59;7.40;96.40
20815;DHT22;10568;48.176;16.316;2023-04-06T07:39:26;7.60;95.10
20815;DHT22;10568;48.176;16.316;2023-04-06T07:41:52;7.60;96.00
20815;DHT22;10568;48.176;16.316;2023-04-06T07:44:18;7.60;94.70
20815;DHT22;10568;48.176;16.316;2023-04-06T07:46:44;7.40;95.00
20815;DHT22;10568;48.176;16.316;2023-04-06T07:49:10;7.60;95.70
20815;DHT22;10568;48.176;16.316;2023-04-06T07:51:37;7.70;96.20
20815;DHT22;10568;48.176;16.316;2023-04-06T07:54:03;7.60;95.90
20815;DHT22;10568;48.176;16.316;2023-04-06T07:56:29;7.70;96.20
20815;DHT22;10568;48.176;16.316;2023-04-06T07:58:55;7.60;94.80
20815;DHT22;10568;48.176;16.316;2023-04-06T08:01:23;7.50;94.90
20815;DHT22;10568;48.176;16.316;2023-04-06T08:03:49;7.70;96.10
20815;DHT22;10568;48.176;16.316;2023-04-06T08:06:34;7.80;96.10
20815;DHT22;10568;48.176;16.316;2023-04-06T08:09:02;7.80;94.60
20815;DHT22;10568;48.176;16.316;2023-04-06T08:11:28;8.20;97.50
20815;DHT22;10568;48.176;16.316;2023-04-06T08:13:54;8.40;96.40
20815;DHT22;10568;48.176;16.316;2023-04-06T08:16:22;8.50;94.60
20815;DHT22;10568;48.176;16.316;2023-04-06T08:18:48;8.50;94.20
20815;DHT22;10568;48.176;16.316;2023-04-06T08:21:14;8.60;94.40
20815;DHT22;10568;48.176;16.316;2023-04-06T08:23:40;8.60;93.80
20815;DHT22;10568;48.176;16.316;2023-04-06T08:26:06;8.90;94.30
20815;DHT22;10568;48.176;16.316;2023-04-06T08:28:32;9.00;93.10
20815;DHT22;10568;48.176;16.316;2023-04-06T08:31:03;9.30;92.70
20815;DHT22;10568;48.176;16.316;2023-04-06T08:33:29;9.80;92.60
20815;DHT22;10568;48.176;16.316;2023-04-06T08:35:55;9.80;91.90
20815;DHT22;10568;48.176;16.316;2023-04-06T08:38:21;10.10;91.70
20815;DHT22;10568;48.176;16.316;2023-04-06T08:40:47;9.90;92.00
20815;DHT22;10568;48.176;16.316;2023-04-06T08:43:17;10.20;90.50
20815;DHT22;10568;48.176;16.316;2023-04-06T08:45:45;10.20;92.40
20815;DHT22;10568;48.176;16.316;2023-04-06T08:48:11;10.20;92.10
20815;DHT22;10568;48.176;16.316;2023-04-06T08:50:38;10.50;90.40
20815;DHT22;10568;48.176;16.316;2023-04-06T08:53:06;10.10;90.80
20815;DHT22;10568;48.176;16.316;2023-04-06T08:55:32;10.50;90.10
20815;DHT22;10568;48.176;16.316;2023-04-06T08:57:59;10.00;88.60
20815;DHT22;10568;48.176;16.316;2023-04-06T09:00:26;10.40;89.60
20815;DHT22;10568;48.176;16.316;2023-04-06T09:02:54;10.70;93.30
20815;DHT22;10568;48.176;16.316;2023-04-06T09:05:21;10.70;89.50
20815;DHT22;10568;48.176;16.316;2023-04-06T09:07:47;10.80;87.70
20815;DHT22;10568;48.176;16.316;2023-04-06T09:10:13;10.50;87.20
20815;DHT22;10568;48.176;16.316;2023-04-06T09:12:38;10.90;89.30
20815;DHT22;10568;48.176;16.316;2023-04-06T09:15:05;10.90;87.60
20815;DHT22;10568;48.176;16.316;2023-04-06T09:17:32;10.90;90.50
20815;DHT22;10568;48.176;16.316;2023-04-06T09:20:03;10.80;84.80
20815;DHT22;10568;48.176;16.316;2023-04-06T09:22:39;11.30;92.00
20815;DHT22;10568;48.176;16.316;2023-04-06T09:25:06;11.30;88.90
20815;DHT22;10568;48.176;16.316;2023-04-06T09:27:34;10.70;86.10
20815;DHT22;10568;48.176;16.316;2023-04-06T09:30:04;10.70;87.10
20815;DHT22;10568;48.176;16.316;2023-04-06T09:32:31;10.90;82.40
20815;DHT22;10568;48.176;16.316;2023-04-06T09:35:09;11.00;81.90
20815;DHT22;10568;48.176;16.316;2023-04-06T09:37:35;11.00;81.50
20815;DHT22;10568;48.176;16.316;2023-04-06T09:40:06;10.70;81.50
20815;DHT22;10568;48.176;16.316;2023-04-06T09:42:33;10.80;83.80
20815;DHT22;10568;48.176;16.316;2023-04-06T09:45:03;10.60;83.00
20815;DHT22;10568;48.176;16.316;2023-04-06T09:47:36;10.30;84.40
20815;DHT22;10568;48.176;16.316;2023-04-06T09:50:03;10.10;81.80
20815;DHT22;10568;48.176;16.316;2023-04-06T09:52:49;10.20;82.80
20815;DHT22;10568;48.176;16.316;2023-04-06T09:55:26;10.30;78.90
20815;DHT22;10568;48.176;16.316;2023-04-06T09:58:06;10.20;83.00
20815;DHT22;10568;48.176;16.316;2023-04-06T10:00:40;11.00;83.50
20815;DHT22;10568;48.176;16.316;2023-04-06T10:03:32;11.30;83.70
20815;DHT22;10568;48.176;16.316;2023-04-06T10:06:12;11.20;76.90
20815;DHT22;10568;48.176;16.316;2023-04-06T10:08:41;11.00;77.90
20815;DHT22;10568;48.176;16.316;2023-04-06T10:11:11;11.50;76.60
20815;DHT22;10568;48.176;16.316;2023-04-06T10:13:37;11.90;77.00
20815;DHT22;10568;48.176;16.316;2023-04-06T10:16:04;11.90;77.00
20815;DHT22;10568;48.176;16.316;2023-04-06T10:18:30;12.00;75.20
20815;DHT22;10568;48.176;16.316;2023-04-06T10:21:04;12.10;73.80
20815;DHT22;10568;48.176;16.316;2023-04-06T10:23:47;12.40;76.00
20815;DHT22;10568;48.176;16.316;2023-04-06T10:26:16;12.60;72.70
20815;DHT22;10568;48.176;16.316;2023-04-06T10:28:43;12.70;73.00
20815;DHT22;10568;48.176;16.316;2023-04-06T10:31:09;12.20;68.60
20815;DHT22;10568;48.176;16.316;2023-04-06T10:34:00;12.00;70.10
20815;DHT22;10568;48.176;16.316;2023-04-06T10:36:35;12.00;69.90
20815;DHT22;10568;48.176;16.316;2023-04-06T10:39:04;12.40;75.50
20815;DHT22;10568;48.176;16.316;2023-04-06T10:41:44;12.80;73.90
20815;DHT22;10568;48.176;16.316;2023-04-06T10:44:22;12.70;73.30
20815;DHT22;10568;48.176;16.316;2023-04-06T10:46:58;12.50;72.10
20815;DHT22;10568;48.176;16.316;2023-04-06T10:49:26;12.40;71.60
20815;DHT22;10568;48.176;16.316;2023-04-06T10:51:55;11.80;71.00
20815;DHT22;10568;48.176;16.316;2023-04-06T10:54:24;11.40;68.30
20815;DHT22;10568;48.176;16.316;2023-04-06T10:56:51;11.60;72.30
20815;DHT22;10568;48.176;16.316;2023-04-06T10:59:20;11.70;70.40
20815;DHT22;10568;48.176;16.316;2023-04-06T11:01:46;11.50;69.80
20815;DHT22;10568;48.176;16.316;2023-04-06T11:04:16;11.60;69.90
20815;DHT22;10568;48.176;16.316;2023-04-06T11:06:49;11.90;70.60
20815;DHT22;10568;48.176;16.316;2023-04-06T11:09:28;12.20;73.10
20815;DHT22;10568;48.176;16.316;2023-04-06T11:11:55;12.10;69.70
20815;DHT22;10568;48.176;16.316;2023-04-06T11:14:21;11.70;68.30
20815;DHT22;10568;48.176;16.316;2023-04-06T11:16:48;11.90;68.50
20815;DHT22;10568;48.176;16.316;2023-04-06T11:19:15;11.70;69.60
20815;DHT22;10568;48.176;16.316;2023-04-06T11:21:43;12.20;72.30
20815;DHT22;10568;48.176;16.316;2023-04-06T11:24:22;12.10;69.60
20815;DHT22;10568;48.176;16.316;2023-04-06T11:29:23;12.40;68.70
20815;DHT22;10568;48.176;16.316;2023-04-06T11:31:51;12.30;70.50
20815;DHT22;10568;48.176;16.316;2023-04-06T11:34:21;12.00;67.00
20815;DHT22;10568;48.176;16.316;2023-04-06T11:36:49;12.20;69.40
20815;DHT22;10568;48.176;16.316;2023-04-06T11:39:21;12.30;72.10
20815;DHT22;10568;48.176;16.316;2023-04-06T11:41:48;12.40;68.20
20815;DHT22;10568;48.176;16.316;2023-04-06T11:44:15;12.80;70.00
20815;DHT22;10568;48.176;16.316;2023-04-06T11:46:50;13.10;67.60
20815;DHT22;10568;48.176;16.316;2023-04-06T11:49:17;13.30;67.80
20815;DHT22;10568;48.176;16.316;2023-04-06T11:51:43;13.70;70.60
20815;DHT22;10568;48.176;16.316;2023-04-06T11:54:09;13.80;66.80
20815;DHT22;10568;48.176;16.316;2023-04-06T11:56:35;13.60;65.30
20815;DHT22;10568;48.176;16.316;2023-04-06T11:59:00;13.70;64.90
20815;DHT22;10568;48.176;16.316;2023-04-06T12:01:26;13.80;64.20
20815;DHT22;10568;48.176;16.316;2023-04-06T12:03:53;14.30;65.70
20815;DHT22;10568;48.176;16.316;2023-04-06T12:06:19;14.50;69.10
20815;DHT22;10568;48.176;16.316;2023-04-06T12:08:45;14.00;63.70
20815;DHT22;10568;48.176;16.316;2023-04-06T12:11:11;13.90;65.00
20815;DHT22;10568;48.176;16.316;2023-04-06T12:13:37;13.60;62.10
20815;DHT22;10568;48.176;16.316;2023-04-06T12:16:03;13.40;61.60
20815;DHT22;10568;48.176;16.316;2023-04-06T12:18:29;13.00;62.10
20815;DHT22;10568;48.176;16.316;2023-04-06T12:20:55;13.50;64.20
20815;DHT22;10568;48.176;16.316;2023-04-06T12:23:21;13.20;65.30
20815;DHT22;10568;48.176;16.316;2023-04-06T12:25:47;13.50;63.30
20815;DHT22;10568;48.176;16.316;2023-04-06T12:28:13;13.60;63.70
20815;DHT22;10568;48.176;16.316;2023-04-06T12:30:38;13.70;62.50
20815;DHT22;10568;48.176;16.316;2023-04-06T12:33:06;13.50;63.10
20815;DHT22;10568;48.176;16.316;2023-04-06T12:35:36;13.60;62.60
20815;DHT22;10568;48.176;16.316;2023-04-06T12:38:02;13.60;62.70
20815;DHT22;10568;48.176;16.316;2023-04-06T12:40:27;13.70;63.00
20815;DHT22;10568;48.176;16.316;2023-04-06T12:42:53;13.80;62.50
20815;DHT22;10568;48.176;16.316;2023-04-06T12:45:19;13.50;61.70
20815;DHT22;10568;48.176;16.316;2023-04-06T12:47:44;13.90;64.30
20815;DHT22;10568;48.176;16.316;2023-04-06T12:50:10;14.00;64.00
20815;DHT22;10568;48.176;16.316;2023-04-06T12:52:36;14.00;61.50
20815;DHT22;10568;48.176;16.316;2023-04-06T12:55:03;13.80;62.40
20815;DHT22;10568;48.176;16.316;2023-04-06T12:57:30;13.70;63.20
20815;DHT22;10568;48.176;16.316;2023-04-06T12:59:57;13.40;62.50
20815;DHT22;10568;48.176;16.316;2023-04-06T13:02:23;13.20;63.90
20815;DHT22;10568;48.176;16.316;2023-04-06T13:04:49;13.00;62.10
20815;DHT22;10568;48.176;16.316;2023-04-06T13:07:15;12.70;62.70
20815;DHT22;10568;48.176;16.316;2023-04-06T13:09:41;12.70;64.30
20815;DHT22;10568;48.176;16.316;2023-04-06T13:15:11;12.30;62.00
20815;DHT22;10568;48.176;16.316;2023-04-06T13:17:36;12.20;62.10
20815;DHT22;10568;48.176;16.316;2023-04-06T13:20:02;12.10;64.90
20815;DHT22;10568;48.176;16.316;2023-04-06T13:22:29;11.90;63.70
20815;DHT22;10568;48.176;16.316;2023-04-06T13:24:55;12.20;64.90
20815;DHT22;10568;48.176;16.316;2023-04-06T13:27:20;12.30;63.20
20815;DHT22;10568;48.176;16.316;2023-04-06T13:29:46;12.60;63.80
20815;DHT22;10568;48.176;16.316;2023-04-06T13:32:12;12.50;62.70
20815;DHT22;10568;48.176;16.316;2023-04-06T13:34:38;12.60;65.90
20815;DHT22;10568;48.176;16.316;2023-04-06T13:37:04;12.70;63.80
20815;DHT22;10568;48.176;16.316;2023-04-06T13:39:29;12.80;66.70
20815;DHT22;10568;48.176;16.316;2023-04-06T13:41:56;12.80;63.10
20815;DHT22;10568;48.176;16.316;2023-04-06T13:44:22;13.00;63.20
20815;DHT22;10568;48.176;16.316;2023-04-06T13:46:48;13.30;62.10
20815;DHT22;10568;48.176;16.316;2023-04-06T13:49:14;13.20;61.80
20815;DHT22;10568;48.176;16.316;2023-04-06T13:51:41;13.40;62.50
20815;DHT22;10568;48.176;16.316;2023-04-06T13:54:07;13.40;64.60
20815;DHT22;10568;48.176;16.316;2023-04-06T13:56:33;13.50;63.00
20815;DHT22;10568;48.176;16.316;2023-04-06T13:58:59;13.60;62.70
20815;DHT22;10568;48.176;16.316;2023-04-06T14:01:24;13.50;60.60
20815;DHT22;10568;48.176;16.316;2023-04-06T14:03:52;13.60;61.80
20815;DHT22;10568;48.176;16.316;2023-04-06T14:06:17;14.00;61.40
20815;DHT22;10568;48.176;16.316;2023-04-06T14:08:43;13.90;61.20
20815;DHT22;10568;48.176;16.316;2023-04-06T14:11:13;13.70;60.90
20815;DHT22;10568;48.176;16.316;2023-04-06T14:13:40;13.40;60.90
20815;DHT22;10568;48.176;16.316;2023-04-06T14:16:06;13.50;60.80
20815;DHT22;10568;48.176;16.316;2023-04-06T14:18:33;13.20;60.80
20815;DHT22;10568;48.176;16.316;2023-04-06T14:21:00;13.00;62.10
20815;DHT22;10568;48.176;16.316;2023-04-06T14:23:27;12.90;62.10
20815;DHT22;10568;48.176;16.316;2023-04-06T14:26:06;12.80;62.80
20815;DHT22;10568;48.176;16.316;2023-04-06T14:28:34;12.50;62.30
20815;DHT22;10568;48.176;16.316;2023-04-06T14:31:02;12.30;64.20
20815;DHT22;10568;48.176;16.316;2023-04-06T14:33:30;12.20;62.40
20815;DHT22;10568;48.176;16.316;2023-04-06T14:35:56;11.90;63.80
20815;DHT22;10568;48.176;16.316;2023-04-06T14:38:22;11.80;64.70
20815;DHT22;10568;48.176;16.316;2023-04-06T14:40:48;11.70;65.10
20815;DHT22;10568;48.176;16.316;2023-04-06T14:43:13;11.60;62.70
20815;DHT22;10568;48.176;16.316;2023-04-06T14:45:40;11.50;63.10
20815;DHT22;10568;48.176;16.316;2023-04-06T14:48:06;11.30;63.20
20815;DHT22;10568;48.176;16.316;2023-04-06T14:50:33;11.30;64.10
20815;DHT22;10568;48.176;16.316;2023-04-06T14:52:59;11.20;64.00
20815;DHT22;10568;48.176;16.316;2023-04-06T14:55:26;11.20;64.70
20815;DHT22;10568;48.176;16.316;2023-04-06T14:57:52;11.10;64.50
20815;DHT22;10568;48.176;16.316;2023-04-06T15:00:18;11.20;64.60
20815;DHT22;10568;48.176;16.316;2023-04-06T15:02:44;11.20;64.30
20815;DHT22;10568;48.176;16.316;2023-04-06T15:05:09;11.20;65.10
20815;DHT22;10568;48.176;16.316;2023-04-06T15:07:36;11.20;63.90
20815;DHT22;10568;48.176;16.316;2023-04-06T15:10:03;11.20;64.50
20815;DHT22;10568;48.176;16.316;2023-04-06T15:12:29;11.20;64.50
20815;DHT22;10568;48.176;16.316;2023-04-06T15:14:55;11.10;64.50
20815;DHT22;10568;48.176;16.316;2023-04-06T15:17:20;11.10;64.80
20815;DHT22;10568;48.176;16.316;2023-04-06T15:19:46;11.20;65.70
20815;DHT22;10568;48.176;16.316;2023-04-06T15:22:12;11.20;67.20
20815;DHT22;10568;48.176;16.316;2023-04-06T15:24:37;11.30;66.00
20815;DHT22;10568;48.176;16.316;2023-04-06T15:27:03;11.10;65.90
20815;DHT22;10568;48.176;16.316;2023-04-06T15:29:30;11.10;64.50
20815;DHT22;10568;48.176;16.316;2023-04-06T15:31:56;11.10;66.40
20815;DHT22;10568;48.176;16.316;2023-04-06T15:34:22;11.20;67.80
20815;DHT22;10568;48.176;16.316;2023-04-06T15:36:48;11.30;65.60
20815;DHT22;10568;48.176;16.316;2023-04-06T15:39:13;11.20;66.90
20815;DHT22;10568;48.176;16.316;2023-04-06T15:41:48;11.00;65.60